Condiciones actuales en los principales Aeropuertos de España-Datos Metar

 

LEAL - Alicante
Actualización: 23/05/2024 06:30
Despejado
Despejado
 Viento del ONO
Viento: ONO 6 km/h
Temperatura: 16°C
Rocío: 10°C
Humedad: 68%
Barómetro: 1016 hPa
Resumen: Despejado
Visibilidad: greater than 10 km
2024/05/23 04:30 LEAL 230430Z 30003KT 260V350 CAVOK 16/10 Q1016 NOSIG
LEAB - Albacete
Actualización: 23/05/2024 06:30
Despejado
Despejado
 Viento del calm
Viento: Calma
Temperatura: 8°C
Rocío: 2°C
Humedad: 66%
Barómetro: 1018 hPa
Resumen: Despejado
Visibilidad: greater than 10 km
2024/05/23 04:30 LEAB 230430Z 00000KT CAVOK 08/02 Q1018 NOSIG
LEAM - Almería
Actualización: 23/05/2024 06:30
Despejado
Despejado
 Viento del varies
Viento: varies 4 km/h
Temperatura: 16°C
Rocío: 10°C
Humedad: 68%
Barómetro: 1015 hPa
Resumen: Despejado
Visibilidad: greater than 10 km
2024/05/23 04:30 LEAM 230430Z VRB02KT CAVOK 16/10 Q1015
 
LEAS - Asturias/Aviles
Actualización: 23/05/2024 06:30
Mostly Cloudy
Mostly Cloudy
 Viento del SO
Viento: SO 15 km/h
Temperatura: 10°C
Wind Chill: 8°C
Rocío: 8°C
Humedad: 88%
Barómetro: 1021 hPa
Nubosidad: Mostly Cloudy
Visibilidad: 10 km
Cloud details: Mostly Cloudy 1829 m
2024/05/23 04:30 LEAS 230430Z 23008KT 9999 BKN060 10/08 Q1021 NOSIG
LEBZ - Badajoz/Talavera la Real
Actualización: 22/05/2024 21:00
NO Actualizado
Despejado
Despejado
 Viento del ONO
Viento: ONO 17 km/h
Temperatura: 21°C
Rocío: 6°C
Humedad: 38%
Barómetro: 1017 hPa
Resumen: Despejado
Visibilidad: greater than 10 km
2024/05/22 19:00 LEBZ 221900Z 29009KT 270V330 CAVOK 21/06 Q1017
LEBL - Barcelona
Actualización: 23/05/2024 06:30
Partly Cloudy
Partly Cloudy
 Viento del NNO
Viento: NNO 15 km/h
Temperatura: 15°C
Rocío: 12°C
Humedad: 82%
Barómetro: 1017 hPa
Nubosidad: Partly Cloudy
Visibilidad: 10 km
Cloud details: Partly Cloudy 457 m
2024/05/23 04:30 LEBL 230430Z 33008KT 9999 SCT015 15/12 Q1017 NOSIG
 
LEBB - Bilbao
Actualización: 23/05/2024 06:30
Partly Cloudy
Partly Cloudy
 Viento del ESE
Viento: ESE 6 km/h
Temperatura: 12°C
Rocío: 11°C
Humedad: 94%
Barómetro: 1021 hPa
Nubosidad: Partly Cloudy
Visibilidad: 10 km
Cloud details: Partly Cloudy 853 m
Partly Cloudy 1829 m
2024/05/23 04:30 LEBB 230430Z 12003KT 9999 SCT028 SCT060 12/11 Q1021 NOSIG
LEBG - Burgos/Villafría
Actualización: 23/05/2024 06:30
Mostly Cloudy
Mostly Cloudy
 Viento del NE
Viento: NE 9 km/h
Temperatura: 4°C
Wind Chill: 2°C
Rocío: 3°C
Humedad: 93%
Barómetro: 1020 hPa
Nubosidad: Mostly Cloudy
Visibilidad: 10 km
Cloud details: Mostly Cloudy 1737 m
2024/05/23 04:30 LEBG 230430Z AUTO 04005KT 020V090 9999 BKN057 04/03 Q1020
LEBA - Córdoba
Actualización: 23/05/2024 06:30
Despejado
Despejado
 Viento del SO
Viento: SO 4 km/h
Temperatura: 12°C
Rocío: 8°C
Humedad: 77%
Barómetro: 1015 hPa
Resumen: Despejado
Visibilidad: greater than 10 km
2024/05/23 04:30 LEBA 230430Z AUTO 23002KT CAVOK 12/08 Q1015
 
LEGE - Gerona
Actualización: 23/05/2024 06:30
Partly Cloudy
Partly Cloudy
 Viento del OSO
Viento: OSO 7 km/h
Temperatura: 11°C
Rocío: 10°C
Humedad: 94%
Barómetro: 1018 hPa
Nubosidad: Partly Cloudy
Visibilidad: 10 km
Cloud details: Partly Cloudy 2743 m
2024/05/23 04:30 LEGE 230430Z 25004KT 9999 SCT090 11/10 Q1018 NOSIG
LEGR - Granada
Actualización: 23/05/2024 06:30
Despejado
Despejado
 Viento del OSO
Viento: OSO 6 km/h
Temperatura: 10°C
Rocío: 4°C
Humedad: 67%
Barómetro: 1017 hPa
Resumen: Despejado
Visibilidad: greater than 10 km
2024/05/23 04:30 LEGR 230430Z 24003KT CAVOK 10/04 Q1017
GCHI - Hierro
Actualización: 23/05/2024 06:30
Mostly Cloudy
Mostly Cloudy
 Viento del N
Viento: N 26 km/h
Temperatura: 20°C
Rocío: 15°C
Humedad: 73%
Barómetro: 1019 hPa
Nubosidad: Mostly Cloudy
Visibilidad: 10 km
Cloud details: Mostly Cloudy 1280 m
2024/05/23 04:30 GCHI 230430Z AUTO 01014KT 330V050 9999 BKN042 20/15 Q1019
 
LEIB - Ibiza
Actualización: 23/05/2024 06:30
Few Clouds
Few Clouds
 Viento del NNO
Viento: NNO 7 km/h
Temperatura: 16°C
Rocío: 15°C
Humedad: 94%
Barómetro: 1016 hPa
Nubosidad: Few Clouds
Visibilidad: 10 km
Cloud details: Few Clouds 335 m
2024/05/23 04:30 LEIB 230430Z 34004KT 9999 FEW011 16/15 Q1016 NOSIG
LEJR - Jerez de la Frontera
Actualización: 23/05/2024 06:30
Despejado
Despejado
 Viento del N
Viento: N 6 km/h
Temperatura: 14°C
Rocío: 9°C
Humedad: 72%
Barómetro: 1014 hPa
Resumen: Despejado
Visibilidad: greater than 10 km
2024/05/23 04:30 LEJR 230430Z 35003KT 320V060 CAVOK 14/09 Q1014
LECO - A Coruña
Actualización: 23/05/2024 06:30
Light drizzle, Muy nuboso
Light drizzle, Muy nuboso
 Viento del SSE
Viento: SSE 6 km/h
Temperatura: 9°C
Rocío: 9°C
Humedad: 100%
Barómetro: 1022 hPa
Resumen: Light Drizzle
Nubosidad: Mostly Cloudy
Visibilidad: 7 km
Cloud details: Mostly Cloudy 396 m
2024/05/23 04:30 LECO 230430Z 15003KT 120V180 7000 -DZ BKN013 09/09 Q1022 NOSIG
 
GCLA - La Palma
Actualización: 23/05/2024 06:30
Cubierto
Cubierto
 Viento del NNO
Viento: NNO 11 km/h
Temperatura: 20°C
Rocío: 14°C
Humedad: 69%
Barómetro: 1019 hPa
Nubosidad: Cubierto
Visibilidad: 10 km
Cloud details: Mostly Cloudy 610 m
Cubierto 792 m
2024/05/23 04:30 GCLA 230430Z AUTO 34006KT 9999 BKN020 OVC026 20/14 Q1019
GCRR - Lanzarote
Actualización: 23/05/2024 06:30
Mostly Cloudy
Mostly Cloudy
 Viento del NNE
Viento: NNE 20 km/h
Temperatura: 18°C
Rocío: 12°C
Humedad: 68%
Barómetro: 1017 hPa
Nubosidad: Mostly Cloudy
Visibilidad: 10 km
Cloud details: Mostly Cloudy 1036 m
2024/05/23 04:30 GCRR 230430Z AUTO 03011KT 350V060 9999 BKN034 18/12 Q1017
GCLP - Las Palmas
Actualización: 23/05/2024 06:30
Few Clouds
Few Clouds
 Viento del N
Viento: N 30 km/h
Temperatura: 19°C
Rocío: 13°C
Humedad: 68%
Barómetro: 1018 hPa
Nubosidad: Few Clouds
Visibilidad: 10 km
Cloud details: Few Clouds 914 m
2024/05/23 04:30 GCLP 230430Z 36016KT 9999 FEW030 19/13 Q1018 NOSIG
 
LELN - León
Actualización: 23/05/2024 06:30
Despejado
Despejado
 Viento del NO
Viento: NO 7 km/h
Temperatura: 3°C
Wind Chill: 1°C
Rocío: 2°C
Humedad: 93%
Barómetro: 1020 hPa
Resumen: Despejado
Visibilidad: greater than 10 km
2024/05/23 04:30 LELN 230430Z AUTO 32004KT CAVOK 03/02 Q1020
LELO - Logroño
Actualización: 23/05/2024 06:30
Despejado
Despejado
 Viento del varies
Viento: varies 2 km/h
Temperatura: 9°C
Rocío: 8°C
Humedad: 94%
Barómetro: 1021 hPa
Resumen: Despejado
Visibilidad: greater than 10 km
2024/05/23 04:30 LELO 230430Z AUTO VRB01KT CAVOK 09/08 Q1021
LECV - Madrid/Colmenar
Actualización: 22/05/2024 20:00
NO Actualizado
Few Clouds
Few Clouds
 Viento del OSO
Viento: OSO 15 km/h
Temperatura: 18°C
Rocío: 2°C
Humedad: 34%
Barómetro: 1017 hPa
Nubosidad: Few Clouds
Visibilidad: 10 km
Cloud details: Few Clouds 1524 m
2024/05/22 18:00 LECV 221800Z 25008KT 9999 FEW050 18/02 Q1017
 
LEMD - Madrid/Barajas
Actualización: 23/05/2024 06:30
Despejado
Despejado
 Viento del calm
Viento: Calma
Temperatura: 8°C
Rocío: 4°C
Humedad: 76%
Barómetro: 1018 hPa
Resumen: Despejado
Visibilidad: greater than 10 km
2024/05/23 04:30 LEMD 230430Z 00000KT CAVOK 08/04 Q1018 NOSIG
LEVS - Madrid/Cuatro Vientos
Actualización: 23/05/2024 06:30
Despejado
Despejado
 Viento del ENE
Viento: ENE 6 km/h
Temperatura: 11°C
Rocío: 4°C
Humedad: 62%
Barómetro: 1018 hPa
Resumen: Despejado
Visibilidad: greater than 10 km
2024/05/23 04:30 LEVS 230430Z AUTO 06003KT 340V110 CAVOK 11/04 Q1018
LEGT - Madrid/Getafe
Actualización: 23/05/2024 06:30
Despejado
Despejado
 Viento del NNE
Viento: NNE 6 km/h
Temperatura: 9°C
Rocío: 4°C
Humedad: 71%
Barómetro: 1018 hPa
Resumen: Despejado
Visibilidad: greater than 10 km
2024/05/23 04:30 LEGT 230430Z AUTO 03003KT CAVOK 09/04 Q1018
 
LETO - Madrid/Torrejón
Actualización: 23/05/2024 06:30
Despejado
Despejado
 Viento del NNE
Viento: NNE 11 km/h
Temperatura: 7°C
Wind Chill: 5°C
Rocío: 4°C
Humedad: 81%
Barómetro: 1018 hPa
Resumen: Despejado
Visibilidad: greater than 10 km
2024/05/23 04:30 LETO 230430Z 03006KT CAVOK 07/04 Q1018 NOSIG
LEMG - Málaga
Actualización: 23/05/2024 06:30
Despejado
Despejado
 Viento del ONO
Viento: ONO 15 km/h
Temperatura: 15°C
Rocío: 6°C
Humedad: 55%
Barómetro: 1015 hPa
Resumen: Despejado
Visibilidad: greater than 10 km
2024/05/23 04:30 LEMG 230430Z 29008KT CAVOK 15/06 Q1015 NOSIG
GEML - Melilla
Actualización: 23/05/2024 06:30
Despejado
Despejado
 Viento del varies
Viento: varies 4 km/h
Temperatura: 18°C
Rocío: 14°C
Humedad: 78%
Barómetro: 1015 hPa
Resumen: Despejado
Visibilidad: greater than 10 km
2024/05/23 04:30 GEML 230430Z VRB02KT CAVOK 18/14 Q1015
 
LEMH - Mahón
Actualización: 23/05/2024 06:30
Few Clouds
Few Clouds
 Viento del NNE
Viento: NNE 2 km/h
Temperatura: 14°C
Rocío: 14°C
Humedad: 100%
Barómetro: 1017 hPa
Nubosidad: Few Clouds
Visibilidad: 10 km
Cloud details: Few Clouds 518 m
2024/05/23 04:30 LEMH 230430Z 03001KT 9999 FEW017 14/14 Q1017
LEMO - Morón de La Frontera
Actualización: 23/05/2024 06:30
Despejado
Despejado
 Viento del E
Viento: E 6 km/h
Temperatura: 13°C
Rocío: 8°C
Humedad: 72%
Barómetro: 1015 hPa
Resumen: Despejado
Visibilidad: greater than 10 km
2024/05/23 04:30 LEMO 230430Z 08003KT CAVOK 13/08 Q1015 NOSIG
LEMI - Murcia/Corvera
Actualización: 23/05/2024 06:30
Despejado
Despejado
 Viento del O
Viento: O 6 km/h
Temperatura: 15°C
Rocío: 5°C
Humedad: 51%
Barómetro: 1016 hPa
Resumen: Despejado
Visibilidad: greater than 10 km
2024/05/23 04:30 LEMI 230430Z AUTO 28003KT CAVOK 15/05 Q1016
 
LERI - Murcia/Alcantarilla
Actualización: 22/05/2024 20:00
NO Actualizado
Despejado
Despejado
 Viento del SSE
Viento: SSE 20 km/h
Temperatura: 25°C
Rocío: 5°C
Humedad: 28%
Barómetro: 1014 hPa
Resumen: Despejado
Visibilidad: greater than 10 km
2024/05/22 18:00 LERI 221800Z 16011KT 130V190 CAVOK 25/05 Q1014 NOSIG
LELC - Murcia/San Javier
Actualización: 23/05/2024 06:30
Despejado
Despejado
 Viento del O
Viento: O 7 km/h
Temperatura: 14°C
Rocío: 11°C
Humedad: 82%
Barómetro: 1016 hPa
Nubosidad: Despejado
Visibilidad: 9 km
2024/05/23 04:30 LELC 230430Z AUTO 27004KT 9000 NCD 14/11 Q1016
LEPA - Palma de Mallorca
Actualización: 23/05/2024 06:30
Despejado
Despejado
 Viento del ENE
Viento: ENE 7 km/h
Temperatura: 15°C
Rocío: 14°C
Humedad: 94%
Barómetro: 1016 hPa
Resumen: Despejado
Visibilidad: greater than 10 km
2024/05/23 04:30 LEPA 230430Z 06004KT CAVOK 15/14 Q1016 NOSIG
 
LEPP - Pamplona
Actualización: 23/05/2024 06:30
Cubierto
Cubierto
 Viento del varies
Viento: varies 2 km/h
Temperatura: 9°C
Rocío: 8°C
Humedad: 94%
Barómetro: 1020 hPa
Nubosidad: Cubierto
Visibilidad: 10 km
Cloud details: Partly Cloudy 396 m
Cubierto 1067 m
2024/05/23 04:30 LEPP 230430Z VRB01KT 9999 SCT013 OVC035 09/08 Q1020
LERS - Reus
Actualización: 23/05/2024 06:30
Despejado
Despejado
 Viento del N
Viento: N 7 km/h
Temperatura: 14°C
Rocío: 11°C
Humedad: 82%
Barómetro: 1017 hPa
Resumen: Despejado
Visibilidad: greater than 10 km
2024/05/23 04:30 LERS 230430Z AUTO 01004KT CAVOK 14/11 Q1017
LERT - Rota
Actualización: 23/05/2024 06:30
Despejado
Despejado
 Viento del N
Viento: N 15 km/h
Temperatura: 15°C
Rocío: 9°C
Humedad: 68%
Barómetro: 1015 hPa
Resumen: Despejado
Visibilidad: greater than 10 km
2024/05/23 04:30 LERT 230430Z 36008KT 320V030 CAVOK 15/09 Q1015 NOSIG
 
LELL - Sabadell
Actualización: 23/05/2024 06:30
Despejado
Despejado
 Viento del varies
Viento: varies 4 km/h
Temperatura: 13°C
Rocío: 10°C
Humedad: 82%
Barómetro: 1018 hPa
Resumen: Despejado
Visibilidad: greater than 10 km
2024/05/23 04:30 LELL 230430Z AUTO VRB02KT CAVOK 13/10 Q1018
LESA - Salamanca
Actualización: 23/05/2024 06:30
Despejado
Despejado
 Viento del calm
Viento: Calma
Temperatura: 4°C
Rocío: 3°C
Humedad: 93%
Barómetro: 1020 hPa
Resumen: Despejado
Visibilidad: greater than 10 km
2024/05/23 04:30 LESA 230430Z AUTO 00000KT CAVOK 04/03 Q1020
LESO - San Sebastián
Actualización: 23/05/2024 06:30
Mostly Cloudy
Mostly Cloudy
 Viento del SO
Viento: SO 15 km/h
Temperatura: 13°C
Rocío: 11°C
Humedad: 88%
Barómetro: 1020 hPa
Nubosidad: Mostly Cloudy
Visibilidad: 10 km
Cloud details: Mostly Cloudy 640 m
Mostly Cloudy 1372 m
2024/05/23 04:30 LESO 230430Z 23008KT 9999 BKN021 BKN045 13/11 Q1020
 
LEXJ - Santander
Actualización: 23/05/2024 06:30
Partly Cloudy
Partly Cloudy
 Viento del SO
Viento: SO 13 km/h
Temperatura: 12°C
Rocío: 9°C
Humedad: 82%
Barómetro: 1021 hPa
Nubosidad: Partly Cloudy
Visibilidad: 10 km
Cloud details: Few Clouds 762 m
Partly Cloudy 1524 m
2024/05/23 04:30 LEXJ 230430Z 22007KT 190V250 9999 FEW025 SCT050 12/09 Q1021
LEPA - Palma de Mallorca
Actualización: 23/05/2024 06:30
Despejado
Despejado
 Viento del ENE
Viento: ENE 7 km/h
Temperatura: 15°C
Rocío: 14°C
Humedad: 94%
Barómetro: 1016 hPa
Resumen: Despejado
Visibilidad: greater than 10 km
2024/05/23 04:30 LEPA 230430Z 06004KT CAVOK 15/14 Q1016 NOSIG
LEPP - Pamplona
Actualización: 23/05/2024 06:30
Cubierto
Cubierto
 Viento del varies
Viento: varies 2 km/h
Temperatura: 9°C
Rocío: 8°C
Humedad: 94%
Barómetro: 1020 hPa
Nubosidad: Cubierto
Visibilidad: 10 km
Cloud details: Partly Cloudy 396 m
Cubierto 1067 m
2024/05/23 04:30 LEPP 230430Z VRB01KT 9999 SCT013 OVC035 09/08 Q1020
 
LEST - Santiago de Compostela
Actualización: 23/05/2024 06:30
Few Clouds
Few Clouds
 Viento del varies
Viento: varies 2 km/h
Temperatura: 7°C
Rocío: 7°C
Humedad: 100%
Barómetro: 1022 hPa
Nubosidad: Few Clouds
Visibilidad: 10 km
Cloud details: Few Clouds 305 m
2024/05/23 04:30 LEST 230430Z VRB01KT 9999 FEW010 07/07 Q1022 NOSIG
LEZL - Sevilla
Actualización: 23/05/2024 06:30
Despejado
Despejado
 Viento del NNE
Viento: NNE 9 km/h
Temperatura: 17°C
Rocío: 6°C
Humedad: 49%
Barómetro: 1015 hPa
Resumen: Despejado
Visibilidad: greater than 10 km
2024/05/23 04:30 LEZL 230430Z 03005KT CAVOK 17/06 Q1015 NOSIG
GCXO - Tenerife
Actualización: 23/05/2024 06:30
Mostly Cloudy
Mostly Cloudy
 Viento del NO
Viento: NO 20 km/h
Temperatura: 14°C
Rocío: 13°C
Humedad: 94%
Barómetro: 1020 hPa
Nubosidad: Mostly Cloudy
Visibilidad: 9 km
Cloud details: Partly Cloudy 91 m
Mostly Cloudy 305 m
Mostly Cloudy 427 m
2024/05/23 04:30 GCXO 230430Z AUTO 32011KT 290V350 9000 SCT003 BKN010 BKN014 14/13 Q1020
 
GCTS - Tenerife-Sur
Actualización: 23/05/2024 06:30
Few Clouds
Few Clouds
 Viento del N
Viento: N 13 km/h
Temperatura: 18°C
Rocío: 12°C
Humedad: 68%
Barómetro: 1018 hPa
Nubosidad: Few Clouds
Visibilidad: 10 km
Cloud details: Few Clouds 1372 m
2024/05/23 04:30 GCTS 230430Z 36007KT 9999 FEW045 18/12 Q1018 NOSIG
LEVC - Valencia
Actualización: 23/05/2024 06:30
Few Clouds
Few Clouds
 Viento del O
Viento: O 6 km/h
Temperatura: 14°C
Rocío: 10°C
Humedad: 77%
Barómetro: 1017 hPa
Nubosidad: Few Clouds
Visibilidad: 10 km
Cloud details: Few Clouds 914 m
2024/05/23 04:30 LEVC 230430Z 28003KT 9999 FEW030 14/10 Q1017 NOSIG
LEVD - Valladolid
Actualización: 23/05/2024 06:30
Despejado
Despejado
 Viento del NNE
Viento: NNE 7 km/h
Temperatura: 3°C
Wind Chill: 1°C
Rocío: 3°C
Humedad: 100%
Barómetro: 1020 hPa
Resumen: Despejado
Visibilidad: greater than 10 km
2024/05/23 04:30 LEVD 230430Z AUTO 03004KT CAVOK 03/03 Q1020
 
LEVX - Vigo
Actualización: 23/05/2024 06:30
Despejado
Despejado
 Viento del N
Viento: N 9 km/h
Temperatura: 8°C
Wind Chill: 6°C
Rocío: 7°C
Humedad: 93%
Barómetro: 1022 hPa
Resumen: Despejado
Visibilidad: greater than 10 km
2024/05/23 04:30 LEVX 230430Z 01005KT CAVOK 08/07 Q1022 NOSIG
LEVT - Vitoria
Actualización: 23/05/2024 06:30
Mostly Cloudy
Mostly Cloudy
 Viento del ENE
Viento: ENE 4 km/h
Temperatura: 8°C
Rocío: 8°C
Humedad: 100%
Barómetro: 1021 hPa
Nubosidad: Mostly Cloudy
Visibilidad: 10 km
Cloud details: Few Clouds 305 m
Mostly Cloudy 884 m
Mostly Cloudy 2286 m
2024/05/23 04:30 LEVT 230430Z 07002KT 9999 FEW010 BKN029 BKN075 08/08 Q1021
LEZG - Zaragoza
Actualización: 23/05/2024 06:30
Despejado
Despejado
 Viento del O
Viento: O 19 km/h
Temperatura: 12°C
Rocío: 8°C
Humedad: 77%
Barómetro: 1019 hPa
Resumen: Despejado
Visibilidad: greater than 10 km
2024/05/23 04:30 LEZG 230430Z 27010KT CAVOK 12/08 Q1019 NOSIG

La estación de MeteoMurcia.com, publica sus datos en los siguientes proyectos:

Weather Underground PWS IMURCIAP2 Meteoclimatic www.awekas.at

Web Analytics

Clicky